Skip Navigation LinksHome page > Weather > Current weather Skip Navigation Links

Current Weather

San Francisco International, San Francisco

For information only: do not use for flight planning or navigation.
Latest weather
Observation time Friday, August 29, 2014 8:56 PM PDT
Local time Friday, August 29, 2014 9:27 PM PDT
Flight conditions Visual Meteorological Conditions
Winds
Wind direction Northwest (320°)
Wind speed 14 mph
Visibility 10 mi.
Sky condition
Ceiling unlimited
Cloud layer few clouds 800 ft.
Cloud layer scattered clouds 18,000 ft.
Temperature 63°F
Dewpoint 60°F
Altimeter 29.91 in.Hg
Derived measurements
Relative humidity 90%
Density altitude 529 ft.
Sea-level pressure 29.91 in.Hg
Remarks
System requires maintenance.
Automated weather observing station with precipitation discriminator.
METAR KSFO 300356Z 32012KT 10SM FEW008 SCT180 17/16 A2991 RMK AO2 SLP127 T01720156 $

Settings

Location code

InnerDrive.Weather 4.0.5341.0 Release CLR 4.0.30319.34014
Copyright ©2014 Inner Drive Technology. All rights reserved. Portions Copyright ©1986-2014 David Braverman.

Find weather

Site navigation


Skip Navigation Links

Place info

Page info

PayPal - The safer, easier way to pay online!

Return home.

Copyright ©2014 Inner Drive Technology. Purveyors of fine, hand-crafted computer software. Page printed 2014-08-30T04:27:27 UTC.